createdAt,value
2022-11-02T00:04:45.937Z,14.18
2022-11-02T00:09:48.781Z,13.68
2022-11-02T00:14:50.627Z,13.95
2022-11-02T00:19:52.651Z,14.11
2022-11-02T00:24:55.763Z,13.79
2022-11-02T00:29:59.895Z,13.37
2022-11-02T00:35:01.899Z,13.83
2022-11-02T00:40:04.752Z,13.65
2022-11-02T00:45:07.722Z,13.63
2022-11-02T00:50:09.951Z,13.60
2022-11-02T00:55:15.155Z,13.31
2022-11-02T01:00:19.156Z,13.16
2022-11-02T01:05:21.561Z,13.04
2022-11-02T01:10:23.558Z,12.88
2022-11-02T01:15:25.485Z,13.20
2022-11-02T01:20:27.423Z,13.26
2022-11-02T01:25:29.508Z,13.29
2022-11-02T01:30:31.402Z,13.26
2022-11-02T01:35:33.267Z,13.59
2022-11-02T01:40:40.407Z,13.54
2022-11-02T01:45:42.294Z,13.79
2022-11-02T01:50:44.596Z,13.83
2022-11-02T01:55:46.712Z,13.65
2022-11-02T02:00:48.678Z,13.75
2022-11-02T02:05:57.919Z,13.99
2022-11-02T02:10:59.871Z,13.98
2022-11-02T02:16:01.883Z,13.88
2022-11-02T02:21:22.970Z,13.94
2022-11-02T02:26:33.835Z,14.12
2022-11-02T02:31:44.252Z,14.00
2022-11-02T02:36:52.108Z,14.05
2022-11-02T02:42:23.636Z,13.90
2022-11-02T02:47:30.500Z,14.07
2022-11-02T02:52:35.881Z,14.14
2022-11-02T02:57:37.990Z,14.17
2022-11-02T03:02:40.374Z,14.22
2022-11-02T03:07:44.837Z,14.22
2022-11-02T03:12:52.970Z,14.35
2022-11-02T03:18:15.623Z,14.37
2022-11-02T03:23:24.227Z,14.36
2022-11-02T03:28:50.531Z,14.33
2022-11-02T03:34:18.747Z,14.43
2022-11-02T03:39:42.202Z,14.52
2022-11-02T03:44:45.947Z,14.62
2022-11-02T03:49:50.276Z,14.66
2022-11-02T03:55:02.935Z,14.66
2022-11-02T04:00:13.501Z,14.73
2022-11-02T04:05:34.250Z,14.79
2022-11-02T04:11:02.303Z,14.79
2022-11-02T04:16:04.595Z,14.82
2022-11-02T04:21:06.631Z,14.74
2022-11-02T04:26:08.589Z,14.85
2022-11-02T04:31:15.714Z,14.92
2022-11-02T04:36:18.009Z,14.98
2022-11-02T04:41:43.989Z,14.86
2022-11-02T04:47:12.769Z,14.88
2022-11-02T04:52:14.810Z,15.03
2022-11-02T04:57:22.184Z,15.00
2022-11-02T05:02:25.293Z,14.98
2022-11-02T05:07:27.636Z,15.07
2022-11-02T05:12:29.959Z,15.03
2022-11-02T05:17:33.945Z,15.06
2022-11-02T05:22:42.587Z,15.06
2022-11-02T05:27:44.737Z,15.00
2022-11-02T05:32:48.083Z,15.00
2022-11-02T05:37:50.085Z,15.01
2022-11-02T05:42:59.914Z,15.06
2022-11-02T05:48:04.293Z,15.06
2022-11-02T05:53:06.448Z,14.92
2022-11-02T05:58:08.655Z,14.95
2022-11-02T06:03:10.658Z,15.07
2022-11-02T06:08:12.814Z,14.84
2022-11-02T06:13:14.702Z,14.83
2022-11-02T06:18:16.587Z,14.89
2022-11-02T06:23:18.480Z,14.89
2022-11-02T06:28:21.082Z,15.08
2022-11-02T06:33:30.499Z,14.93
2022-11-02T06:38:39.206Z,14.93
2022-11-02T06:43:41.149Z,14.79
2022-11-02T06:48:43.230Z,14.85
2022-11-02T06:53:45.290Z,14.36
2022-11-02T06:58:47.167Z,14.82
2022-11-02T07:03:49.179Z,15.38
2022-11-02T07:08:51.250Z,14.98
2022-11-02T07:13:53.437Z,15.18
2022-11-02T07:18:55.335Z,15.04
2022-11-02T07:23:57.357Z,15.14
2022-11-02T07:28:59.677Z,15.10
2022-11-02T07:34:02.048Z,14.83
2022-11-02T07:39:04.669Z,14.89
2022-11-02T07:44:07.207Z,15.12
2022-11-02T07:49:26.402Z,14.82
2022-11-02T07:54:31.640Z,15.22
2022-11-02T07:59:34.000Z,15.49
2022-11-02T08:04:38.411Z,14.94
2022-11-02T08:09:42.772Z,15.60
2022-11-02T08:14:44.643Z,15.91
2022-11-02T08:19:46.500Z,15.97
2022-11-02T08:24:48.411Z,16.63
2022-11-02T08:29:50.335Z,16.40
2022-11-02T08:34:52.518Z,16.44
2022-11-02T08:39:56.940Z,16.59
2022-11-02T08:45:05.164Z,16.96
2022-11-02T08:50:08.789Z,17.18
2022-11-02T08:55:10.888Z,17.49
2022-11-02T09:00:14.154Z,16.81
2022-11-02T09:05:16.153Z,17.24
2022-11-02T09:10:18.177Z,16.89
2022-11-02T09:15:20.307Z,16.77
2022-11-02T09:20:23.436Z,17.60
2022-11-02T09:25:26.117Z,17.70
2022-11-02T09:30:28.879Z,17.26
2022-11-02T09:35:34.397Z,17.39
2022-11-02T09:40:46.488Z,18.04
2022-11-02T09:46:11.692Z,17.80
2022-11-02T09:51:36.052Z,17.99
2022-11-02T09:56:38.053Z,18.34
2022-11-02T10:01:46.867Z,18.69
2022-11-02T10:07:02.301Z,18.54
2022-11-02T10:12:14.319Z,18.54
2022-11-02T10:17:24.281Z,18.24
2022-11-02T10:22:35.153Z,18.53
2022-11-02T10:27:42.750Z,18.05
2022-11-02T10:32:47.593Z,18.29
2022-11-02T10:38:15.494Z,18.69
2022-11-02T10:43:26.547Z,18.40
2022-11-02T10:48:56.012Z,17.88
2022-11-02T10:53:57.995Z,18.63
2022-11-02T10:59:02.639Z,19.26
2022-11-02T11:04:07.086Z,18.77
2022-11-02T11:09:18.476Z,18.55
2022-11-02T11:19:52.702Z,18.35
2022-11-02T11:25:28.392Z,18.44
2022-11-02T11:36:00.417Z,17.63
2022-11-02T11:41:03.954Z,17.89
2022-11-02T11:46:08.481Z,17.78
2022-11-02T11:51:27.635Z,17.77
2022-11-02T11:56:36.219Z,18.08
2022-11-02T12:01:40.132Z,18.10
2022-11-02T12:07:24.180Z,18.52
2022-11-02T12:12:26.240Z,17.60
2022-11-02T12:17:50.443Z,17.25
2022-11-02T12:23:05.113Z,17.51
2022-11-02T12:28:22.820Z,17.43
2022-11-02T12:33:31.118Z,17.16
2022-11-02T12:38:52.896Z,17.01
2022-11-02T12:44:09.411Z,16.96
2022-11-02T12:49:43.478Z,16.80
2022-11-02T12:54:49.377Z,16.45
2022-11-02T12:59:55.168Z,16.48
2022-11-02T13:05:09.429Z,16.59
2022-11-02T13:10:25.963Z,16.70
2022-11-02T13:15:29.947Z,16.58
2022-11-02T13:20:59.334Z,16.82
2022-11-02T13:26:06.475Z,16.86
2022-11-02T13:31:15.527Z,16.60
2022-11-02T13:36:18.508Z,16.45
2022-11-02T13:41:32.341Z,16.60
2022-11-02T13:46:58.675Z,16.70
2022-11-02T13:52:21.275Z,16.78
2022-11-02T13:57:41.811Z,16.62
2022-11-02T14:02:44.107Z,16.62
2022-11-02T14:07:46.158Z,16.74
2022-11-02T14:12:49.605Z,16.73
2022-11-02T14:18:02.288Z,16.67
2022-11-02T14:23:14.353Z,16.62
2022-11-02T14:28:25.747Z,16.51
2022-11-02T14:33:55.602Z,16.39
2022-11-02T14:39:25.135Z,16.05
2022-11-02T14:44:29.755Z,16.12
2022-11-02T14:49:40.666Z,15.90
2022-11-02T14:55:13.526Z,15.76
2022-11-02T15:00:23.302Z,15.58
2022-11-02T15:05:36.884Z,15.51
2022-11-02T15:10:42.598Z,15.46
2022-11-02T15:16:05.406Z,15.24
2022-11-02T15:21:11.113Z,15.15
2022-11-02T15:26:19.136Z,15.10
2022-11-02T15:31:26.131Z,14.95
2022-11-02T15:36:37.397Z,14.87
2022-11-02T15:41:51.380Z,14.71
2022-11-02T15:47:14.440Z,14.51
2022-11-02T15:52:31.056Z,14.40
2022-11-02T15:57:44.981Z,14.33
2022-11-02T16:02:52.156Z,14.17
2022-11-02T16:08:11.764Z,13.97
2022-11-02T16:13:17.436Z,13.66
2022-11-02T16:18:29.377Z,13.55
2022-11-02T16:23:34.337Z,13.34
2022-11-02T16:28:37.850Z,13.23
2022-11-02T16:33:44.282Z,13.11
2022-11-02T16:38:58.405Z,12.99
2022-11-02T16:44:16.376Z,12.89
2022-11-02T16:49:23.187Z,12.78
2022-11-02T16:54:34.692Z,12.66
2022-11-02T16:59:38.712Z,12.52
2022-11-02T17:04:43.991Z,12.40
2022-11-02T17:09:55.057Z,12.31
2022-11-02T17:14:58.499Z,12.28
2022-11-02T17:20:15.225Z,12.23
2022-11-02T17:25:32.470Z,12.18
2022-11-02T17:30:34.313Z,12.12
2022-11-02T17:35:36.641Z,12.12
2022-11-02T17:40:38.946Z,12.10
2022-11-02T17:45:40.851Z,12.03
2022-11-02T17:50:42.947Z,12.01
2022-11-02T17:55:45.136Z,11.97
2022-11-02T18:00:49.853Z,11.93
2022-11-02T18:05:55.835Z,12.07
2022-11-02T18:11:00.813Z,12.38
2022-11-02T18:16:02.666Z,12.65
2022-11-02T18:21:04.668Z,12.74
2022-11-02T18:26:07.982Z,12.69
2022-11-02T18:31:10.408Z,12.57
2022-11-02T18:36:12.303Z,12.57
2022-11-02T18:41:34.672Z,12.55
2022-11-02T18:46:36.736Z,12.55
2022-11-02T18:51:42.927Z,12.84
2022-11-02T18:56:45.460Z,13.03
2022-11-02T19:01:47.523Z,13.11
2022-11-02T19:07:10.048Z,13.29
2022-11-02T19:12:23.706Z,13.43
2022-11-02T19:17:26.683Z,13.47
2022-11-02T19:22:28.800Z,13.45
2022-11-02T19:27:30.895Z,13.30
2022-11-02T19:32:32.760Z,13.14
2022-11-02T19:37:34.894Z,12.95
2022-11-02T19:42:36.902Z,12.80
2022-11-02T19:47:43.274Z,12.85
2022-11-02T19:52:46.461Z,12.92
2022-11-02T19:57:48.860Z,13.05
2022-11-02T20:02:51.083Z,13.21
2022-11-02T20:07:53.066Z,13.41
2022-11-02T20:12:55.099Z,13.40
2022-11-02T20:18:17.717Z,13.48
2022-11-02T20:23:20.511Z,13.54
2022-11-02T20:28:22.333Z,13.55
2022-11-02T20:33:24.701Z,13.71
2022-11-02T20:38:26.894Z,13.75
2022-11-02T20:43:28.977Z,13.86
2022-11-02T20:48:31.183Z,13.84
2022-11-02T20:53:33.342Z,13.82
2022-11-02T20:58:35.750Z,13.90
2022-11-02T21:03:37.618Z,13.97
2022-11-02T21:08:40.490Z,13.83
2022-11-02T21:13:54.339Z,13.70
2022-11-02T21:18:57.138Z,13.44
2022-11-02T21:23:59.007Z,13.45
2022-11-02T21:29:01.327Z,13.40
2022-11-02T21:34:10.600Z,13.48
2022-11-02T21:39:19.224Z,13.52
2022-11-02T21:44:21.068Z,13.60
2022-11-02T21:49:23.279Z,13.68
2022-11-02T21:54:25.369Z,13.60
2022-11-02T21:59:27.450Z,13.38
2022-11-02T22:04:31.416Z,13.19
2022-11-02T22:09:33.567Z,12.99
2022-11-02T22:14:39.085Z,12.78
2022-11-02T22:19:41.033Z,12.66
2022-11-02T22:24:44.925Z,12.52
2022-11-02T22:29:47.176Z,12.38
2022-11-02T22:34:49.378Z,12.26
2022-11-02T22:39:51.204Z,12.21
2022-11-02T22:44:55.108Z,12.10
2022-11-02T22:49:56.928Z,12.19
2022-11-02T22:54:58.771Z,12.45
2022-11-02T23:00:00.868Z,12.48
2022-11-02T23:05:02.767Z,12.41
2022-11-02T23:10:24.868Z,12.22
2022-11-02T23:15:26.779Z,12.03
2022-11-02T23:20:28.649Z,11.91
2022-11-02T23:25:30.475Z,11.76
2022-11-02T23:30:56.259Z,11.57
2022-11-02T23:36:10.982Z,11.55
2022-11-02T23:41:12.966Z,11.40
2022-11-02T23:46:14.923Z,11.46
2022-11-02T23:51:35.244Z,11.51
2022-11-02T23:56:43.175Z,11.46
